Time;durP1;ratioP1;P1;durP2;ratioP2;P2;SDS_P1;SDS_P2;PMS_P1;PMS_P2;Temp;Humidity;BMP_temperature;BMP_pressure;BME280_temperature;BME280_humidity;BME280_pressure;Samples;Min_cycle;Max_cycle;Signal;HPM_P1;HPM_P2
2022/01/18 00:00:45;;;;;;;94.32;9.80;;;5.80;99.90;;;;;;4893513;29;20044;-84
2022/01/18 00:03:10;;;;;;;92.68;10.60;;;5.80;99.90;;;;;;4893527;29;20135;-84
2022/01/18 00:05:37;;;;;;;99.57;9.77;;;5.70;99.90;;;;;;4877962;29;20131;-84
2022/01/18 00:08:03;;;;;;;81.80;10.15;;;5.70;99.90;;;;;;4893638;29;20063;-84
2022/01/18 00:10:31;;;;;;;77.03;8.48;;;5.70;99.90;;;;;;4893439;29;20052;-84
2022/01/18 00:20:45;;;;;;;69.20;8.80;;;5.70;99.90;;;;;;4897565;29;20448;-84
2022/01/18 00:23:10;;;;;;;69.75;9.68;;;6.50;99.90;;;;;;4897048;29;20055;-84
2022/01/18 00:25:40;;;;;;;95.60;9.73;;;5.60;99.90;;;;;;4897852;29;20052;-83
2022/01/18 00:28:06;;;;;;;75.93;8.80;;;5.60;99.90;;;;;;4897802;29;20047;-84
2022/01/18 00:31:00;;;;;;;73.15;10.07;;;5.50;99.90;;;;;;4896596;29;20067;-84
2022/01/18 00:33:25;;;;;;;75.45;8.15;;;5.50;99.90;;;;;;4896789;29;20060;-83
2022/01/18 00:35:59;;;;;;;81.80;8.70;;;5.50;99.90;;;;;;4896025;29;20449;-83
2022/01/18 00:38:43;;;;;;;61.97;8.02;;;5.40;99.90;;;;;;4896357;29;20052;-83
2022/01/18 00:41:09;;;;;;;77.53;9.05;;;5.50;99.90;;;;;;4897075;29;20055;-84
2022/01/18 00:43:37;;;;;;;74.13;8.27;;;5.50;99.90;;;;;;4896552;29;20943;-83
2022/01/18 00:46:03;;;;;;;82.30;8.88;;;5.30;99.90;;;;;;4896543;29;20052;-83
2022/01/18 00:48:32;;;;;;;81.90;9.30;;;5.30;99.90;;;;;;4896574;29;20051;-84
2022/01/18 00:50:59;;;;;;;86.35;9.30;;;5.70;99.90;;;;;;4895611;29;20048;-84
2022/01/18 00:53:26;;;;;;;72.70;8.25;;;5.30;99.90;;;;;;4896743;29;20054;-84
2022/01/18 00:56:07;;;;;;;81.95;9.07;;;5.30;99.90;;;;;;4896276;29;20464;-84
2022/01/18 00:58:32;;;;;;;85.93;10.77;;;5.30;99.90;;;;;;4895839;29;20071;-84
2022/01/18 01:00:58;;;;;;;86.55;10.65;;;5.30;99.90;;;;;;4896849;29;20501;-84
2022/01/18 01:03:24;;;;;;;89.97;10.30;;;5.30;99.90;;;;;;4895894;29;20567;-84
2022/01/18 01:05:50;;;;;;;77.72;9.25;;;5.30;99.90;;;;;;4895376;29;20058;-84
2022/01/18 01:08:15;;;;;;;101.00;9.93;;;5.80;99.90;;;;;;4896615;29;20095;-83
2022/01/18 01:10:41;;;;;;;107.22;10.30;;;5.60;99.90;;;;;;4880167;29;20381;-83
2022/01/18 01:13:08;;;;;;;91.00;9.75;;;5.70;99.90;;;;;;4896454;29;20044;-84
2022/01/18 01:15:41;;;;;;;113.97;10.82;;;5.50;99.90;;;;;;4896622;29;20496;-84
2022/01/18 01:18:37;;;;;;;83.40;9.15;;;5.60;99.90;;;;;;4879754;29;20059;-84
2022/01/18 01:32:26;;;;;;;82.30;9.63;;;5.50;99.90;;;;;;4894653;29;20135;-84
2022/01/18 01:43:11;;;;;;;97.10;9.50;;;5.20;99.90;;;;;;4895744;29;20527;-84
2022/01/18 01:45:38;;;;;;;111.78;10.23;;;5.20;99.90;;;;;;4879953;29;20056;-84
2022/01/18 01:48:04;;;;;;;109.78;8.70;;;5.40;99.90;;;;;;4880172;29;20047;-84
2022/01/18 01:53:07;;;;;;;102.63;10.75;;;5.30;99.90;;;;;;4894747;29;20511;-84
2022/01/18 01:55:33;;;;;;;83.60;8.60;;;5.10;99.90;;;;;;4880052;29;20056;-84
2022/01/18 01:57:59;;;;;;;81.70;9.35;;;5.20;99.90;;;;;;4895306;29;20056;-84
2022/01/18 02:00:24;;;;;;;80.10;9.13;;;5.20;99.90;;;;;;4894928;29;20039;-84
2022/01/18 02:02:50;;;;;;;83.53;8.73;;;5.40;99.90;;;;;;4895153;29;20547;-84
2022/01/18 02:05:16;;;;;;;73.47;8.02;;;5.20;99.90;;;;;;4894586;29;20040;-84
2022/01/18 02:07:42;;;;;;;83.95;7.95;;;5.20;99.90;;;;;;4895033;29;20567;-84
2022/01/18 02:10:10;;;;;;;62.35;7.35;;;6.00;99.90;;;;;;4895461;29;20221;-84
2022/01/18 02:12:36;;;;;;;70.50;7.68;;;5.30;99.90;;;;;;4895643;29;20063;-84
2022/01/18 02:15:12;;;;;;;58.80;7.45;;;5.50;99.90;;;;;;4879437;29;20527;-84
2022/01/18 02:23:20;;;;;;;79.35;8.32;;;5.40;99.90;;;;;;4895099;29;20063;-84
2022/01/18 02:25:46;;;;;;;63.45;6.97;;;5.70;99.90;;;;;;4895778;29;20044;-84
2022/01/18 02:28:13;;;;;;;64.28;7.50;;;5.50;99.90;;;;;;4894444;29;20515;-84
2022/01/18 02:30:38;;;;;;;66.78;7.38;;;5.80;99.90;;;;;;4895423;29;20155;-84
2022/01/18 02:33:04;;;;;;;64.28;6.53;;;5.90;99.90;;;;;;4894594;29;20139;-84
2022/01/18 02:35:33;;;;;;;67.38;7.40;;;5.50;99.90;;;;;;4893528;29;20619;-84
2022/01/18 02:37:58;;;;;;;61.28;7.30;;;5.50;99.90;;;;;;4894904;29;20059;-84
2022/01/18 02:40:24;;;;;;;58.83;6.40;;;6.40;99.90;;;;;;4894370;29;20482;-85
2022/01/18 02:42:58;;;;;;;67.60;8.10;;;5.60;99.90;;;;;;4894344;29;20052;-85
2022/01/18 02:45:24;;;;;;;76.68;6.85;;;5.60;99.90;;;;;;4894688;29;20457;-85
2022/01/18 02:47:50;;;;;;;53.30;5.68;;;5.80;99.90;;;;;;4894211;29;20048;-85
2022/01/18 02:50:18;;;;;;;52.03;6.45;;;6.10;99.90;;;;;;4893248;29;20126;-84
2022/01/18 02:52:44;;;;;;;67.13;6.97;;;5.60;99.90;;;;;;4894738;29;20067;-84
2022/01/18 02:55:10;;;;;;;58.20;6.70;;;5.80;99.90;;;;;;4894440;29;20044;-84
2022/01/18 02:57:44;;;;;;;54.22;6.57;;;5.60;99.90;;;;;;4893469;29;20079;-84
2022/01/18 03:00:20;;;;;;;54.95;6.05;;;5.60;99.90;;;;;;4894347;29;20083;-84
2022/01/18 03:05:30;;;;;;;54.15;6.20;;;5.70;99.90;;;;;;4893926;29;20123;-84
2022/01/18 03:07:55;;;;;;;65.47;7.32;;;5.70;99.90;;;;;;4894181;29;20488;-84
2022/01/18 03:10:21;;;;;;;48.42;7.30;;;5.80;99.90;;;;;;4893557;29;20432;-84
2022/01/18 03:12:47;;;;;;;63.67;5.18;;;5.70;99.90;;;;;;4894173;29;20048;-85
2022/01/18 03:15:12;;;;;;;62.90;6.50;;;5.80;99.90;;;;;;4894711;29;20080;-84
2022/01/18 03:17:38;;;;;;;52.10;5.18;;;5.80;99.90;;;;;;4893078;29;20052;-83
2022/01/18 03:20:06;;;;;;;39.95;5.72;;;5.80;99.90;;;;;;4893856;29;20036;-84
2022/01/18 03:22:31;;;;;;;47.60;5.63;;;5.80;99.90;;;;;;4894241;29;20087;-84
2022/01/18 03:28:07;;;;;;;34.58;4.80;;;6.00;99.90;;;;;;4894051;29;20056;-84
2022/01/18 03:30:24;;;;;;;43.60;5.00;;;5.90;99.90;;;;;;4893350;29;20131;-84
2022/01/18 03:32:49;;;;;;;45.63;5.10;;;5.90;99.90;;;;;;4893055;29;20135;-83
2022/01/18 03:35:15;;;;;;;38.63;4.57;;;6.20;99.90;;;;;;4893000;29;20513;-83
2022/01/18 03:37:42;;;;;;;38.97;5.05;;;6.20;99.90;;;;;;4893863;29;20062;-84
2022/01/18 03:40:09;;;;;;;46.85;6.32;;;6.30;99.90;;;;;;4893573;29;20044;-85
2022/01/18 03:42:40;;;;;;;42.03;5.10;;;6.00;99.90;;;;;;4893815;29;20054;-84
2022/01/18 03:45:08;;;;;;;42.35;4.45;;;6.00;99.90;;;;;;4894481;29;20084;-84
2022/01/18 03:47:34;;;;;;;37.85;4.10;;;6.00;99.90;;;;;;4892488;29;20060;-84
2022/01/18 03:50:01;;;;;;;33.28;4.93;;;6.10;99.90;;;;;;4893516;29;20048;-84
2022/01/18 03:52:27;;;;;;;39.65;4.55;;;6.30;99.90;;;;;;4876876;29;20048;-84
2022/01/18 03:54:53;;;;;;;43.90;4.53;;;6.10;99.90;;;;;;4894213;29;20040;-84
2022/01/18 03:57:19;;;;;;;37.45;4.55;;;6.40;99.90;;;;;;4892938;29;20102;-84
2022/01/18 03:59:46;;;;;;;45.00;4.28;;;6.60;99.90;;;;;;4893103;29;20075;-84
2022/01/18 04:02:12;;;;;;;36.20;5.13;;;6.50;99.90;;;;;;4893255;29;20052;-84
2022/01/18 04:04:39;;;;;;;42.42;4.07;;;6.10;99.90;;;;;;4893944;29;20052;-84
2022/01/18 04:07:05;;;;;;;32.17;3.45;;;6.40;99.90;;;;;;4892632;29;20515;-84
2022/01/18 04:09:32;;;;;;;40.00;4.57;;;6.60;99.90;;;;;;4893531;29;20404;-84
2022/01/18 04:11:57;;;;;;;36.63;4.10;;;6.10;99.90;;;;;;4893541;29;20060;-84
2022/01/18 04:14:24;;;;;;;32.85;4.43;;;6.10;99.90;;;;;;4892511;29;20044;-84
2022/01/18 04:17:06;;;;;;;31.33;4.95;;;6.30;99.90;;;;;;4893053;29;20058;-84
2022/01/18 04:27:31;;;;;;;26.45;2.90;;;6.00;99.90;;;;;;4892030;29;20071;-84
2022/01/18 04:29:57;;;;;;;28.35;4.15;;;6.00;99.90;;;;;;4893354;29;20584;-84
2022/01/18 04:32:22;;;;;;;30.75;3.15;;;6.00;99.90;;;;;;4892649;29;20134;-84
2022/01/18 04:34:48;;;;;;;34.67;3.95;;;6.00;99.90;;;;;;4892961;29;20058;-84
2022/01/18 04:37:14;;;;;;;29.30;3.78;;;6.00;99.90;;;;;;4893099;29;20412;-83
2022/01/18 04:39:42;;;;;;;27.33;3.88;;;6.30;99.90;;;;;;4893174;29;20044;-83
2022/01/18 04:42:15;;;;;;;21.33;2.95;;;6.10;99.90;;;;;;4892885;29;20071;-83
2022/01/18 04:49:51;;;;;;;28.58;3.83;;;5.90;99.90;;;;;;4892412;29;20063;-84
2022/01/18 04:52:18;;;;;;;23.85;3.53;;;6.40;99.90;;;;;;4892412;29;20044;-83
2022/01/18 04:54:46;;;;;;;21.80;2.72;;;5.90;99.90;;;;;;4893724;29;20048;-84
2022/01/18 04:59:38;;;;;;;21.27;2.78;;;5.90;99.90;;;;;;4896253;29;20059;-83
2022/01/18 05:02:04;;;;;;;21.90;2.38;;;5.90;99.90;;;;;;4896425;29;20048;-83
2022/01/18 05:04:30;;;;;;;15.43;2.50;;;5.90;99.90;;;;;;4895966;29;20078;-83
2022/01/18 05:07:00;;;;;;;23.48;3.20;;;5.90;99.90;;;;;;4896441;29;20500;-83
2022/01/18 05:09:26;;;;;;;30.13;3.00;;;6.50;99.90;;;;;;4898788;29;20047;-84
2022/01/18 05:12:03;;;;;;;21.35;2.92;;;6.00;99.90;;;;;;4914697;29;20039;-84
2022/01/18 05:14:32;;;;;;;20.75;3.33;;;5.90;99.90;;;;;;4933086;29;20047;-84
2022/01/18 05:17:35;;;;;;;27.27;3.50;;;6.30;99.90;;;;;;4898058;29;20051;-84
2022/01/18 05:20:35;;;;;;;22.85;2.63;;;6.40;99.90;;;;;;4914786;29;20066;-84
2022/01/18 05:22:58;;;;;;;24.55;3.90;;;5.90;99.90;;;;;;4896251;29;20052;-84
2022/01/18 05:25:26;;;;;;;26.15;3.47;;;6.10;99.90;;;;;;4895664;29;20078;-83
2022/01/18 05:27:52;;;;;;;19.95;2.60;;;6.00;99.90;;;;;;4911759;29;20051;-84
2022/01/18 05:30:18;;;;;;;16.02;2.70;;;5.90;99.90;;;;;;4895976;29;20060;-83
2022/01/18 05:32:44;;;;;;;20.38;2.50;;;6.50;99.90;;;;;;4901547;29;20048;-81
2022/01/18 05:35:09;;;;;;;21.20;2.55;;;6.60;99.90;;;;;;4887877;29;20084;-83
2022/01/18 05:37:35;;;;;;;28.83;3.25;;;5.90;99.90;;;;;;4904699;29;20047;-83
2022/01/18 05:40:00;;;;;;;24.60;2.60;;;6.30;99.90;;;;;;4904489;29;20040;-82
2022/01/18 05:42:26;;;;;;;18.10;2.78;;;5.90;99.90;;;;;;4904864;29;20115;-83
2022/01/18 05:44:52;;;;;;;19.02;2.45;;;5.90;99.90;;;;;;4903783;29;20486;-83
2022/01/18 05:47:17;;;;;;;14.40;2.20;;;5.90;99.90;;;;;;4905334;29;20155;-83
2022/01/18 05:49:43;;;;;;;18.42;2.05;;;6.30;99.90;;;;;;4909996;29;20467;-83
2022/01/18 05:52:09;;;;;;;20.73;2.55;;;5.90;99.90;;;;;;4912898;29;20044;-82
2022/01/18 05:54:34;;;;;;;12.35;2.20;;;5.90;99.90;;;;;;4912339;29;20547;-82
2022/01/18 05:57:00;;;;;;;18.10;1.85;;;6.50;99.90;;;;;;4913866;29;20039;-82
2022/01/18 05:59:34;;;;;;;30.35;3.15;;;5.90;99.90;;;;;;4910447;29;20286;-82
2022/01/18 06:02:03;;;;;;;18.05;2.55;;;5.90;99.90;;;;;;4908704;29;20087;-82
2022/01/18 06:06:51;;;;;;;11.00;2.03;;;5.90;99.90;;;;;;4909345;29;20036;-83
2022/01/18 06:07:20;;;;;;;19.10;2.10;;;6.30;99.90;;;;;;4913561;29;20126;-83
2022/01/18 06:09:46;;;;;;;19.35;2.03;;;5.90;99.90;;;;;;4913914;29;20044;-82
2022/01/18 06:12:12;;;;;;;16.25;2.13;;;5.80;99.90;;;;;;4914492;29;20054;-83
2022/01/18 06:14:37;;;;;;;18.50;2.00;;;5.80;99.90;;;;;;4913705;29;20058;-83
2022/01/18 06:17:03;;;;;;;23.73;2.92;;;6.50;99.90;;;;;;4895091;29;20071;-83
2022/01/18 06:19:29;;;;;;;20.58;2.15;;;5.80;99.90;;;;;;4895439;29;20044;-83
2022/01/18 06:21:55;;;;;;;12.25;1.88;;;5.80;99.90;;;;;;4910122;29;20044;-83
2022/01/18 06:24:20;;;;;;;21.67;2.33;;;5.90;99.90;;;;;;4911203;29;20044;-83
2022/01/18 06:26:46;;;;;;;20.77;2.28;;;5.80;99.90;;;;;;4895252;29;20212;-82
2022/01/18 06:29:12;;;;;;;22.58;2.97;;;6.20;99.90;;;;;;4879488;29;20403;-83
2022/01/18 06:31:37;;;;;;;18.80;1.95;;;5.80;99.90;;;;;;4894689;29;20091;-83
2022/01/18 06:34:03;;;;;;;14.85;1.92;;;5.80;99.90;;;;;;4909627;29;20537;-80
2022/01/18 06:36:29;;;;;;;19.88;2.60;;;6.00;99.90;;;;;;4915605;29;20047;-83
2022/01/18 06:38:54;;;;;;;16.73;2.00;;;5.70;99.90;;;;;;4913585;29;20195;-83
2022/01/18 06:41:20;;;;;;;17.48;1.85;;;5.70;99.90;;;;;;4912839;29;20051;-81
2022/01/18 06:43:46;;;;;;;13.88;2.58;;;5.70;99.90;;;;;;4913943;29;20052;-81
2022/01/18 06:46:12;;;;;;;12.85;1.98;;;5.80;99.90;;;;;;4914085;29;20476;-82
2022/01/18 06:48:37;;;;;;;16.98;2.28;;;5.70;99.90;;;;;;4912828;29;20135;-82
2022/01/18 06:51:03;;;;;;;17.38;3.03;;;6.60;99.90;;;;;;4913249;29;20047;-83
2022/01/18 06:53:33;;;;;;;28.05;3.17;;;5.70;99.90;;;;;;4914258;29;20059;-82
2022/01/18 06:55:59;;;;;;;26.83;3.38;;;5.80;99.90;;;;;;4897643;29;20059;-82
2022/01/18 06:58:25;;;;;;;23.65;3.80;;;5.80;99.90;;;;;;4879608;29;20420;-83
2022/01/18 07:00:50;;;;;;;20.88;4.03;;;5.80;99.90;;;;;;4895022;29;20094;-83
2022/01/18 07:03:17;;;;;;;25.75;3.17;;;5.80;99.90;;;;;;4893041;29;20091;-82
2022/01/18 07:05:45;;;;;;;22.58;3.28;;;5.80;99.90;;;;;;4878819;29;20044;-82
2022/01/18 07:08:11;;;;;;;18.48;2.70;;;6.20;99.90;;;;;;4878744;29;20048;-82
2022/01/18 07:10:37;;;;;;;23.15;3.30;;;5.90;99.90;;;;;;4878392;29;20040;-83
2022/01/18 07:13:02;;;;;;;27.05;3.08;;;5.80;99.90;;;;;;4894425;29;20488;-82
2022/01/18 07:15:28;;;;;;;27.27;3.38;;;5.70;99.90;;;;;;4911294;29;20062;-83
2022/01/18 07:17:54;;;;;;;28.02;2.65;;;5.70;99.90;;;;;;4893036;29;20131;-84
2022/01/18 07:20:19;;;;;;;18.75;3.60;;;6.20;99.90;;;;;;4877844;29;20055;-83
2022/01/18 07:22:46;;;;;;;21.33;3.20;;;6.00;99.90;;;;;;4893264;29;20095;-83
2022/01/18 07:25:13;;;;;;;26.92;3.78;;;5.70;99.90;;;;;;4893855;29;20079;-84
2022/01/18 07:27:38;;;;;;;31.73;4.10;;;5.70;99.90;;;;;;4893452;29;20048;-84
2022/01/18 07:30:05;;;;;;;24.02;3.53;;;5.60;99.90;;;;;;4894547;29;20056;-84
2022/01/18 07:32:30;;;;;;;23.75;3.85;;;5.60;99.90;;;;;;4892150;29;20500;-84
2022/01/18 07:34:57;;;;;;;24.02;3.97;;;5.60;99.90;;;;;;4893912;29;20135;-84
2022/01/18 07:37:23;;;;;;;27.30;4.32;;;6.10;99.90;;;;;;4892998;29;20090;-84
2022/01/18 07:39:51;;;;;;;28.10;3.88;;;5.60;99.90;;;;;;4893690;29;20503;-83
2022/01/18 07:42:17;;;;;;;29.70;5.00;;;6.10;99.90;;;;;;4893689;29;20048;-83
2022/01/18 07:44:43;;;;;;;31.42;4.10;;;5.60;99.90;;;;;;4893176;29;20051;-83
2022/01/18 07:47:09;;;;;;;32.72;4.55;;;5.80;99.90;;;;;;4894823;29;20081;-83
2022/01/18 07:49:35;;;;;;;20.60;4.75;;;5.60;99.90;;;;;;4927698;29;20833;-83
2022/01/18 07:52:01;;;;;;;23.08;4.20;;;5.60;99.90;;;;;;4902137;29;20059;-84
2022/01/18 07:54:27;;;;;;;26.00;4.13;;;5.60;99.90;;;;;;4920673;29;20054;-84
2022/01/18 07:56:53;;;;;;;30.42;4.53;;;5.60;99.90;;;;;;4893959;29;20055;-84
2022/01/18 07:59:18;;;;;;;36.30;5.05;;;5.80;99.90;;;;;;4892322;29;20071;-84
2022/01/18 08:01:44;;;;;;;32.92;5.88;;;5.50;99.90;;;;;;4911484;29;20126;-84
2022/01/18 08:04:10;;;;;;;32.03;5.05;;;5.50;99.90;;;;;;4897483;29;20044;-84
2022/01/18 08:06:36;;;;;;;25.45;4.70;;;5.60;99.90;;;;;;4911877;29;20405;-84
2022/01/18 08:09:02;;;;;;;20.92;4.55;;;6.30;99.90;;;;;;4897086;29;20470;-84
2022/01/18 08:11:28;;;;;;;22.70;5.35;;;5.50;99.90;;;;;;4897128;29;20127;-84
2022/01/18 08:13:53;;;;;;;27.77;5.57;;;6.10;99.90;;;;;;4911963;29;20472;-84
2022/01/18 08:18:55;;;;;;;31.15;4.68;;;6.00;99.90;;;;;;4909996;29;20044;-82
2022/01/18 08:21:22;;;;;;;27.70;4.75;;;5.60;99.90;;;;;;4892644;29;20056;-83
2022/01/18 08:23:48;;;;;;;26.45;5.18;;;5.50;99.90;;;;;;4923835;29;20131;-83
2022/01/18 08:26:14;;;;;;;20.17;4.32;;;5.60;99.90;;;;;;4912488;29;20123;-82
2022/01/18 08:28:39;;;;;;;30.08;4.57;;;5.60;99.90;;;;;;4912153;29;20455;-83
2022/01/18 08:31:05;;;;;;;31.95;5.10;;;5.60;99.90;;;;;;4912009;29;20059;-83
2022/01/18 08:33:32;;;;;;;33.63;5.80;;;5.60;99.90;;;;;;4896464;29;20044;-82
2022/01/18 08:35:59;;;;;;;25.52;4.93;;;5.70;99.90;;;;;;4899156;29;20411;-83
2022/01/18 08:38:26;;;;;;;34.50;5.47;;;5.70;99.90;;;;;;4915471;29;20492;-82
2022/01/18 08:40:54;;;;;;;25.95;4.78;;;5.70;99.90;;;;;;4915075;29;20058;-82
2022/01/18 08:43:20;;;;;;;25.52;4.68;;;5.70;99.90;;;;;;4912032;29;20499;-82
2022/01/18 08:45:46;;;;;;;26.20;4.53;;;5.80;99.90;;;;;;4891803;29;20127;-82
2022/01/18 08:48:11;;;;;;;35.67;5.15;;;5.80;99.90;;;;;;4913283;29;20175;-82
2022/01/18 08:50:37;;;;;;;19.60;4.38;;;5.80;99.90;;;;;;4895830;29;20492;-82
2022/01/18 08:53:03;;;;;;;24.92;5.70;;;5.90;99.90;;;;;;4913417;29;20051;-83
2022/01/18 08:55:29;;;;;;;29.73;5.57;;;5.90;99.90;;;;;;4895484;29;20055;-83
2022/01/18 08:57:55;;;;;;;23.17;4.57;;;5.90;99.90;;;;;;4895908;29;20058;-82
2022/01/18 09:00:20;;;;;;;24.45;4.28;;;6.70;99.90;;;;;;4895861;29;20044;-82
2022/01/18 09:02:47;;;;;;;26.15;4.78;;;6.00;99.90;;;;;;4888524;29;20141;-82
2022/01/18 09:05:13;;;;;;;28.08;4.85;;;6.00;99.90;;;;;;4895107;29;20050;-82
2022/01/18 09:07:39;;;;;;;24.52;4.18;;;6.00;99.90;;;;;;4891218;29;20414;-82
2022/01/18 09:10:07;;;;;;;22.83;4.30;;;6.10;99.90;;;;;;4908770;29;20099;-82
2022/01/18 09:12:33;;;;;;;28.10;4.40;;;6.10;99.90;;;;;;4892271;29;20040;-83
2022/01/18 09:15:00;;;;;;;27.75;3.83;;;6.80;99.90;;;;;;4907893;29;20063;-83
2022/01/18 09:17:28;;;;;;;16.52;4.00;;;6.60;99.90;;;;;;4902446;29;20048;-83
2022/01/18 09:19:55;;;;;;;23.45;3.75;;;6.20;99.90;;;;;;4905994;29;20040;-84
2022/01/18 09:22:20;;;;;;;19.80;4.13;;;6.20;99.90;;;;;;4892667;29;20051;-83
2022/01/18 09:24:46;;;;;;;21.45;3.80;;;6.20;99.90;;;;;;4912594;29;20102;-82
2022/01/18 09:27:12;;;;;;;21.15;3.50;;;6.30;99.90;;;;;;4910938;29;20040;-83
2022/01/18 09:29:39;;;;;;;24.77;3.72;;;6.30;99.90;;;;;;4897530;29;20044;-83
2022/01/18 09:32:06;;;;;;;14.45;2.65;;;6.40;99.90;;;;;;4927289;29;20431;-83
2022/01/18 09:34:32;;;;;;;17.80;3.50;;;6.40;99.90;;;;;;4911947;29;20055;-83
2022/01/18 09:36:58;;;;;;;17.17;3.08;;;6.40;99.90;;;;;;4902897;29;20381;-83
2022/01/18 09:39:25;;;;;;;19.52;3.22;;;6.40;99.90;;;;;;4904858;29;20054;-83
2022/01/18 09:41:53;;;;;;;23.65;3.08;;;6.50;99.90;;;;;;4905744;29;20102;-83
2022/01/18 09:44:19;;;;;;;14.20;2.97;;;6.60;99.90;;;;;;4903400;29;20445;-83
2022/01/18 09:46:49;;;;;;;22.35;3.63;;;6.60;99.90;;;;;;4895880;29;20508;-82
2022/01/18 09:49:17;;;;;;;18.17;3.20;;;6.60;99.90;;;;;;4880412;29;20416;-83
2022/01/18 09:51:43;;;;;;;15.27;3.08;;;6.70;99.90;;;;;;4878455;29;20054;-82
2022/01/18 09:54:09;;;;;;;18.60;3.70;;;7.00;99.90;;;;;;4898695;29;20130;-83
2022/01/18 09:56:34;;;;;;;15.48;2.47;;;6.90;99.90;;;;;;4911115;29;20090;-83
2022/01/18 09:59:00;;;;;;;14.38;3.08;;;6.70;99.90;;;;;;4898090;29;20059;-84
2022/01/18 10:01:26;;;;;;;25.20;3.30;;;6.80;99.90;;;;;;4898452;29;20598;-83
2022/01/18 10:03:51;;;;;;;18.90;3.80;;;6.80;99.90;;;;;;4913813;29;20135;-83
2022/01/18 10:06:19;;;;;;;18.17;3.28;;;6.80;99.90;;;;;;4912985;29;20480;-83
2022/01/18 10:08:48;;;;;;;20.13;3.15;;;7.40;99.90;;;;;;4931323;29;20054;-83
2022/01/18 10:11:17;;;;;;;18.52;3.67;;;6.90;99.90;;;;;;4914605;29;20119;-83
2022/01/18 10:13:45;;;;;;;19.08;4.07;;;6.90;99.90;;;;;;4930288;29;20052;-83
2022/01/18 10:16:15;;;;;;;23.15;4.38;;;7.10;99.90;;;;;;4914030;29;20085;-83
2022/01/18 10:18:46;;;;;;;19.27;5.07;;;7.00;99.90;;;;;;4894127;29;20563;-83
2022/01/18 10:21:24;;;;;;;16.90;4.35;;;7.00;99.90;;;;;;4894263;29;20385;-83
2022/01/18 10:23:51;;;;;;;16.10;4.03;;;7.00;99.90;;;;;;4895355;29;20070;-83
2022/01/18 10:26:19;;;;;;;19.58;3.97;;;7.60;99.90;;;;;;4893942;29;20056;-83
2022/01/18 10:28:46;;;;;;;17.45;4.13;;;7.10;99.90;;;;;;4895349;29;20048;-83
2022/01/18 10:31:25;;;;;;;17.27;4.18;;;7.30;99.90;;;;;;4894791;29;20059;-83
2022/01/18 10:34:10;;;;;;;20.90;4.55;;;7.30;99.90;;;;;;4894020;29;20062;-83
2022/01/18 10:36:51;;;;;;;21.48;4.38;;;7.30;99.90;;;;;;4894540;29;20040;-83
2022/01/18 10:39:25;;;;;;;16.25;4.03;;;7.40;99.90;;;;;;4912022;29;20048;-83
2022/01/18 10:41:52;;;;;;;19.75;4.07;;;7.30;99.90;;;;;;4893901;29;20052;-83
2022/01/18 10:44:18;;;;;;;19.65;4.40;;;7.30;99.90;;;;;;4894207;29;20048;-83
2022/01/18 10:46:53;;;;;;;16.40;4.00;;;7.60;99.90;;;;;;4894478;29;20088;-83
2022/01/18 10:49:40;;;;;;;17.15;3.72;;;7.30;99.90;;;;;;4893406;29;20477;-83
2022/01/18 10:52:09;;;;;;;16.25;3.58;;;7.30;99.90;;;;;;4894231;29;20056;-82
2022/01/18 10:54:40;;;;;;;19.92;3.83;;;7.40;99.90;;;;;;4893754;29;20773;-82
2022/01/18 10:57:07;;;;;;;23.15;4.85;;;7.30;99.90;;;;;;4911364;29;20036;-82
2022/01/18 10:59:34;;;;;;;22.67;5.88;;;7.30;99.90;;;;;;4894488;29;20103;-82
2022/01/18 11:02:10;;;;;;;23.67;4.78;;;8.10;99.90;;;;;;4910377;29;20048;-82
2022/01/18 11:04:38;;;;;;;22.45;6.38;;;7.20;99.90;;;;;;4894022;29;20493;-82
2022/01/18 11:07:04;;;;;;;20.45;4.72;;;7.20;99.90;;;;;;4893911;29;20513;-82
2022/01/18 11:09:32;;;;;;;23.23;5.45;;;7.10;99.90;;;;;;4893482;29;20048;-83
2022/01/18 11:11:57;;;;;;;21.42;5.63;;;7.10;99.90;;;;;;4894142;29;20540;-83
2022/01/18 11:14:25;;;;;;;23.42;5.22;;;7.00;99.90;;;;;;4894392;29;20164;-82
2022/01/18 11:16:55;;;;;;;22.73;5.13;;;7.00;99.90;;;;;;4892890;29;20114;-82
2022/01/18 11:21:50;;;;;;;14.75;5.05;;;7.10;99.90;;;;;;4893443;29;20060;-83
2022/01/18 11:24:17;;;;;;;24.05;5.45;;;7.50;99.90;;;;;;4893297;29;20055;-83
2022/01/18 11:26:45;;;;;;;24.33;4.90;;;7.80;99.90;;;;;;4894089;29;20048;-82
2022/01/18 11:29:12;;;;;;;22.63;4.90;;;7.20;99.90;;;;;;4894683;29;20512;-82
2022/01/18 11:31:40;;;;;;;26.60;5.53;;;7.20;99.90;;;;;;4892533;29;20060;-83
2022/01/18 11:34:09;;;;;;;20.52;4.50;;;7.60;99.90;;;;;;4894244;29;20135;-83
2022/01/18 11:36:42;;;;;;;23.58;4.18;;;7.80;99.90;;;;;;4908892;29;20050;-84
2022/01/18 11:39:08;;;;;;;17.27;5.25;;;7.60;99.90;;;;;;4913077;29;20103;-83
2022/01/18 11:41:35;;;;;;;24.35;4.78;;;7.90;99.90;;;;;;4912550;29;20079;-83
2022/01/18 11:44:17;;;;;;;16.85;4.35;;;7.20;99.90;;;;;;4912038;29;20510;-83
2022/01/18 11:46:47;;;;;;;19.10;5.05;;;7.50;99.90;;;;;;4912598;29;20051;-83
2022/01/18 11:49:14;;;;;;;15.82;4.15;;;7.20;99.90;;;;;;4912578;29;20062;-83
2022/01/18 11:51:48;;;;;;;15.50;3.58;;;7.20;99.90;;;;;;4911750;29;20106;-84
2022/01/18 11:54:39;;;;;;;23.80;4.00;;;7.20;99.90;;;;;;4910644;29;20126;-83
2022/01/18 11:57:23;;;;;;;16.55;3.95;;;7.30;99.90;;;;;;4905834;29;20056;-82
2022/01/18 11:59:52;;;;;;;19.80;4.00;;;7.30;99.90;;;;;;4904670;29;20102;-83
2022/01/18 12:02:34;;;;;;;17.85;4.07;;;7.30;99.90;;;;;;4933063;29;20090;-83
2022/01/18 12:05:08;;;;;;;16.13;3.08;;;7.30;99.90;;;;;;4886428;29;20107;-83
2022/01/18 12:07:33;;;;;;;15.35;3.28;;;7.30;99.90;;;;;;4905080;29;20437;-83
2022/01/18 12:10:00;;;;;;;14.15;2.60;;;7.30;99.90;;;;;;4915816;29;20439;-83
2022/01/18 12:12:41;;;;;;;15.95;3.30;;;7.40;99.90;;;;;;4915980;29;20377;-83
2022/01/18 12:15:18;;;;;;;17.98;3.40;;;7.60;99.90;;;;;;4916781;29;20047;-84
2022/01/18 12:17:48;;;;;;;16.33;3.17;;;7.30;99.90;;;;;;4905149;29;20048;-83
2022/01/18 12:20:33;;;;;;;15.18;3.30;;;7.30;99.90;;;;;;4896241;29;20079;-83
2022/01/18 12:23:03;;;;;;;20.50;3.03;;;7.30;99.90;;;;;;4881602;29;20162;-83
2022/01/18 12:25:33;;;;;;;13.30;3.40;;;7.30;99.90;;;;;;4897338;29;20142;-83
2022/01/18 12:28:20;;;;;;;16.15;3.33;;;7.30;99.90;;;;;;4896833;29;20411;-83
2022/01/18 12:31:04;;;;;;;21.67;4.32;;;8.00;99.90;;;;;;4897399;29;20060;-83
2022/01/18 12:33:43;;;;;;;15.38;3.60;;;7.20;99.90;;;;;;4895869;29;20056;-83
2022/01/18 12:36:27;;;;;;;16.77;3.78;;;7.20;99.90;;;;;;4896874;29;20480;-83
2022/01/18 12:38:59;;;;;;;17.30;3.67;;;7.10;99.90;;;;;;4896815;29;20432;-83
2022/01/18 12:41:44;;;;;;;18.40;3.58;;;7.10;99.90;;;;;;4895820;29;20044;-83
2022/01/18 12:44:20;;;;;;;15.82;4.00;;;7.40;99.90;;;;;;4896815;29;20043;-83
2022/01/18 12:46:52;;;;;;;17.50;4.18;;;7.00;99.90;;;;;;4895899;29;20106;-83
2022/01/18 12:49:19;;;;;;;13.82;3.92;;;7.00;99.90;;;;;;4896792;29;20052;-83
2022/01/18 12:51:45;;;;;;;16.23;4.80;;;7.00;99.90;;;;;;4895912;29;20396;-83
2022/01/18 12:54:10;;;;;;;20.52;4.70;;;7.00;99.90;;;;;;4896245;29;20047;-82
2022/01/18 12:56:36;;;;;;;15.88;4.43;;;7.00;99.90;;;;;;4896455;29;20040;-83
2022/01/18 12:59:04;;;;;;;17.08;4.80;;;7.00;99.90;;;;;;4896645;29;20048;-83
2022/01/18 13:01:31;;;;;;;16.10;5.70;;;7.00;99.90;;;;;;4895859;29;20071;-83
2022/01/18 13:03:57;;;;;;;21.55;4.85;;;7.20;99.90;;;;;;4895840;29;20154;-83
2022/01/18 13:06:25;;;;;;;21.33;5.10;;;7.30;99.90;;;;;;4896547;29;20072;-83
2022/01/18 13:08:54;;;;;;;24.92;7.10;;;6.90;99.90;;;;;;4895270;29;20054;-83
2022/01/18 13:11:23;;;;;;;25.58;6.20;;;7.00;99.90;;;;;;4913617;29;20052;-83
2022/01/18 13:13:56;;;;;;;27.38;5.78;;;6.90;99.90;;;;;;4896035;29;20143;-83
2022/01/18 13:27:28;;;;;;;20.33;5.50;;;7.00;99.90;;;;;;4896324;29;20063;-83
2022/01/18 13:30:15;;;;;;;18.42;5.68;;;7.10;99.90;;;;;;4895204;29;20056;-83
2022/01/18 13:32:42;;;;;;;30.33;6.05;;;7.20;99.90;;;;;;4895141;29;20077;-83
2022/01/18 13:35:07;;;;;;;15.43;4.95;;;7.10;99.90;;;;;;4896129;29;20063;-83
2022/01/18 13:37:37;;;;;;;22.30;6.07;;;7.30;99.90;;;;;;4912320;29;20048;-83
2022/01/18 13:40:09;;;;;;;16.38;5.57;;;7.20;99.90;;;;;;4896242;29;20048;-83
2022/01/18 13:42:43;;;;;;;21.30;6.37;;;7.10;99.90;;;;;;4895379;29;20056;-82
2022/01/18 13:45:16;;;;;;;25.02;6.88;;;7.80;99.90;;;;;;4895323;29;20448;-82
2022/01/18 13:47:49;;;;;;;21.65;7.10;;;7.00;99.90;;;;;;4895329;29;20048;-82
2022/01/18 13:50:39;;;;;;;22.65;7.28;;;6.90;99.90;;;;;;4911585;29;20040;-82
2022/01/18 13:53:08;;;;;;;22.95;6.28;;;7.00;99.90;;;;;;4912106;29;20119;-82
2022/01/18 13:55:37;;;;;;;21.10;6.75;;;7.00;99.90;;;;;;4880329;29;20576;-82
2022/01/18 13:58:03;;;;;;;21.10;7.35;;;7.70;99.90;;;;;;4894866;29;20044;-82
2022/01/18 14:00:29;;;;;;;21.45;6.68;;;6.90;99.90;;;;;;4912629;29;20048;-82
2022/01/18 14:02:56;;;;;;;20.27;6.65;;;7.50;99.90;;;;;;4894935;29;20055;-82
2022/01/18 14:05:24;;;;;;;23.23;6.90;;;6.90;99.90;;;;;;4911739;29;20051;-83